createdAt,value
2019-02-14T00:00:08.747Z,18.54
2019-02-14T00:01:09.573Z,18.54
2019-02-14T00:02:08.847Z,18.51
2019-02-14T00:03:08.732Z,18.53
2019-02-14T00:04:09.111Z,18.51
2019-02-14T00:05:17.044Z,18.51
2019-02-14T00:06:09.206Z,18.5
2019-02-14T00:07:08.981Z,18.51
2019-02-14T00:08:09.042Z,18.5
2019-02-14T00:09:08.914Z,18.49
2019-02-14T00:10:08.904Z,18.47
2019-02-14T00:11:08.866Z,18.49
2019-02-14T00:12:09.343Z,18.46
2019-02-14T00:13:08.674Z,18.49
2019-02-14T00:14:08.725Z,18.46
2019-02-14T00:15:10.719Z,18.46
2019-02-14T00:16:09.075Z,18.46
2019-02-14T00:17:09.014Z,18.44
2019-02-14T00:18:10.349Z,18.46
2019-02-14T00:19:09.140Z,18.44
2019-02-14T00:20:09.086Z,18.44
2019-02-14T00:21:09.877Z,18.44
2019-02-14T00:22:09.203Z,18.44
2019-02-14T00:23:09.930Z,18.44
2019-02-14T00:24:09.111Z,18.4
2019-02-14T00:25:08.914Z,18.44
2019-02-14T00:26:09.419Z,18.43
2019-02-14T00:27:09.440Z,18.41
2019-02-14T00:28:08.721Z,18.4
2019-02-14T00:29:09.362Z,18.4
2019-02-14T00:30:08.861Z,18.4
2019-02-14T00:31:09.248Z,18.41
2019-02-14T00:32:10.769Z,18.39
2019-02-14T00:33:08.794Z,18.41
2019-02-14T00:34:08.993Z,18.39
2019-02-14T00:35:09.018Z,18.37
2019-02-14T00:36:09.298Z,18.37
2019-02-14T00:37:09.737Z,18.37
2019-02-14T00:38:09.002Z,18.37
2019-02-14T00:39:10.099Z,18.39
2019-02-14T00:40:08.871Z,18.35
2019-02-14T00:41:09.080Z,18.37
2019-02-14T00:42:09.858Z,18.36
2019-02-14T00:43:09.371Z,18.35
2019-02-14T00:44:09.034Z,18.35
2019-02-14T00:45:08.950Z,18.36
2019-02-14T00:46:09.876Z,18.33
2019-02-14T00:47:09.048Z,18.32
2019-02-14T00:48:09.075Z,18.32
2019-02-14T00:49:08.762Z,18.32
2019-02-14T00:50:09.074Z,18.32
2019-02-14T00:51:08.788Z,18.32
2019-02-14T00:52:09.220Z,18.3
2019-02-14T00:53:09.056Z,18.3
2019-02-14T00:54:10.736Z,18.29
2019-02-14T00:55:09.082Z,18.28
2019-02-14T00:56:09.059Z,18.29
2019-02-14T00:57:09.363Z,18.28
2019-02-14T00:58:08.906Z,18.29
2019-02-14T00:59:09.393Z,18.25
2019-02-14T01:00:09.193Z,18.29
2019-02-14T01:01:10.009Z,18.28
2019-02-14T01:02:09.117Z,18.22
2019-02-14T01:03:09.047Z,18.28
2019-02-14T01:04:08.984Z,18.25
2019-02-14T01:05:09.211Z,18.25
2019-02-14T01:06:09.108Z,18.25
2019-02-14T01:07:09.113Z,18.22
2019-02-14T01:08:10.591Z,18.22
2019-02-14T01:09:09.140Z,18.23
2019-02-14T01:10:09.513Z,18.22
2019-02-14T01:11:09.720Z,18.22
2019-02-14T01:12:09.155Z,18.22
2019-02-14T01:13:09.169Z,18.22
2019-02-14T01:14:08.814Z,18.22
2019-02-14T01:15:09.123Z,18.21
2019-02-14T01:16:09.856Z,18.21
2019-02-14T01:17:08.748Z,18.22
2019-02-14T01:18:08.949Z,18.19
2019-02-14T01:19:09.310Z,18.18
2019-02-14T01:20:09.244Z,18.19
2019-02-14T01:21:09.568Z,18.19
2019-02-14T01:22:10.337Z,18.18
2019-02-14T01:23:09.663Z,18.16
2019-02-14T01:24:10.806Z,18.15
2019-02-14T01:25:09.007Z,18.16
2019-02-14T01:26:10.325Z,18.15
2019-02-14T01:27:09.054Z,18.16
2019-02-14T01:28:08.893Z,18.16
2019-02-14T01:29:08.743Z,18.15
2019-02-14T01:30:09.122Z,18.18
2019-02-14T01:31:09.005Z,18.13
2019-02-14T01:32:09.093Z,18.15
2019-02-14T01:33:09.318Z,18.13
2019-02-14T01:34:09.185Z,18.12
2019-02-14T01:35:09.107Z,18.12
2019-02-14T01:36:10.932Z,18.11
2019-02-14T01:37:09.338Z,18.12
2019-02-14T01:38:08.815Z,18.11
2019-02-14T01:39:09.324Z,18.11
2019-02-14T01:40:09.055Z,18.12
2019-02-14T01:41:09.047Z,18.09
2019-02-14T01:42:11.019Z,18.09
2019-02-14T01:43:09.074Z,18.08
2019-02-14T01:44:09.460Z,18.11
2019-02-14T01:45:09.195Z,18.11
2019-02-14T01:46:10.595Z,18.07
2019-02-14T01:47:09.042Z,18.08
2019-02-14T01:48:09.284Z,18.08
2019-02-14T01:49:08.880Z,18.08
2019-02-14T01:50:08.706Z,18.09
2019-02-14T01:51:09.035Z,18.07
2019-02-14T01:52:09.026Z,18.07
2019-02-14T01:53:08.695Z,18.05
2019-02-14T01:54:10.712Z,18.08
2019-02-14T01:55:09.047Z,18.08
2019-02-14T01:56:08.864Z,18.05
2019-02-14T01:57:09.257Z,18.05
2019-02-14T01:58:08.712Z,18.07
2019-02-14T01:59:08.731Z,18.04
2019-02-14T02:00:09.608Z,18.05
2019-02-14T02:01:08.890Z,18.04
2019-02-14T02:02:10.645Z,18.02
2019-02-14T02:03:09.424Z,18.02
2019-02-14T02:04:08.646Z,18.02
2019-02-14T02:05:09.339Z,18.02
2019-02-14T02:06:09.942Z,18.05
2019-02-14T02:07:08.955Z,18.02
2019-02-14T02:08:09.296Z,18.01
2019-02-14T02:09:09.197Z,18.01
2019-02-14T02:10:08.867Z,18
2019-02-14T02:11:09.104Z,18.02
2019-02-14T02:12:08.724Z,18.01
2019-02-14T02:13:08.837Z,18
2019-02-14T02:14:08.948Z,18
2019-02-14T02:15:08.717Z,17.98
2019-02-14T02:16:09.192Z,17.98
2019-02-14T02:17:08.813Z,18
2019-02-14T02:18:08.912Z,17.98
2019-02-14T02:19:08.929Z,17.95
2019-02-14T02:20:08.982Z,17.95
2019-02-14T02:21:09.091Z,17.98
2019-02-14T02:22:08.930Z,17.97
2019-02-14T02:23:09.420Z,17.97
2019-02-14T02:24:08.780Z,17.97
2019-02-14T02:25:09.181Z,17.97
2019-02-14T02:26:09.306Z,17.94
2019-02-14T02:27:09.408Z,17.95
2019-02-14T02:28:08.751Z,17.95
2019-02-14T02:29:09.098Z,17.95
2019-02-14T02:30:09.063Z,17.94
2019-02-14T02:31:09.080Z,17.94
2019-02-14T02:32:09.018Z,17.94
2019-02-14T02:33:10.700Z,17.93
2019-02-14T02:34:09.263Z,17.91
2019-02-14T02:35:09.059Z,17.93
2019-02-14T02:36:09.043Z,17.93
2019-02-14T02:37:10.129Z,17.89
2019-02-14T02:38:09.355Z,17.91
2019-02-14T02:39:09.575Z,17.93
2019-02-14T02:40:08.980Z,17.89
2019-02-14T02:41:08.736Z,17.89
2019-02-14T02:42:08.886Z,17.88
2019-02-14T02:43:09.039Z,17.91
2019-02-14T02:44:09.354Z,17.88
2019-02-14T02:45:09.322Z,17.89
2019-02-14T02:46:08.697Z,17.87
2019-02-14T02:47:09.432Z,17.88
2019-02-14T02:48:08.857Z,17.88
2019-02-14T02:49:10.535Z,17.87
2019-02-14T02:50:08.967Z,17.87
2019-02-14T02:51:09.269Z,17.88
2019-02-14T02:52:09.358Z,17.88
2019-02-14T02:53:09.849Z,17.85
2019-02-14T02:54:09.210Z,17.87
2019-02-14T02:55:08.915Z,17.88
2019-02-14T02:56:08.835Z,17.85
2019-02-14T02:57:09.670Z,17.85
2019-02-14T02:58:09.250Z,17.87
2019-02-14T02:59:08.695Z,17.84
2019-02-14T03:00:08.778Z,17.84
2019-02-14T03:01:08.780Z,17.82
2019-02-14T03:02:09.395Z,17.84
2019-02-14T03:03:08.899Z,17.84
2019-02-14T03:04:09.450Z,17.82
2019-02-14T03:05:10.705Z,17.82
2019-02-14T03:06:11.353Z,17.81
2019-02-14T03:07:08.989Z,17.82
2019-02-14T03:08:09.378Z,17.81
2019-02-14T03:09:08.709Z,17.82
2019-02-14T03:10:09.871Z,17.81
2019-02-14T03:11:09.679Z,17.82
2019-02-14T03:12:09.289Z,17.8
2019-02-14T03:13:09.153Z,17.8
2019-02-14T03:14:09.313Z,17.8
2019-02-14T03:15:08.728Z,17.8
2019-02-14T03:16:09.203Z,17.78
2019-02-14T03:17:09.130Z,17.78
2019-02-14T03:18:09.036Z,17.78
2019-02-14T03:19:09.381Z,17.8
2019-02-14T03:20:10.757Z,17.78
2019-02-14T03:21:08.926Z,17.8
2019-02-14T03:22:09.260Z,17.78
2019-02-14T03:23:09.354Z,17.77
2019-02-14T03:24:09.778Z,17.76
2019-02-14T03:25:09.088Z,17.78
2019-02-14T03:26:09.867Z,17.77
2019-02-14T03:27:09.117Z,17.77
2019-02-14T03:28:09.089Z,17.77
2019-02-14T03:29:08.892Z,17.74
2019-02-14T03:30:09.064Z,17.77
2019-02-14T03:31:10.742Z,17.77
2019-02-14T03:32:09.699Z,17.74
2019-02-14T03:33:09.278Z,17.76
2019-02-14T03:34:09.053Z,17.74
2019-02-14T03:35:09.519Z,17.74
2019-02-14T03:36:09.143Z,17.73
2019-02-14T03:37:09.265Z,17.73
2019-02-14T03:38:09.087Z,17.73
2019-02-14T03:39:09.195Z,17.74
2019-02-14T03:40:09.474Z,17.73
2019-02-14T03:41:08.982Z,17.74
2019-02-14T03:42:08.854Z,17.73
2019-02-14T03:43:10.711Z,17.73
2019-02-14T03:44:08.825Z,17.68
2019-02-14T03:45:09.322Z,17.74
2019-02-14T03:46:09.707Z,17.71
2019-02-14T03:47:08.693Z,17.71
2019-02-14T03:48:09.157Z,17.71
2019-02-14T03:49:08.985Z,17.7
2019-02-14T03:50:08.674Z,17.73
2019-02-14T03:51:09.106Z,17.7
2019-02-14T03:52:09.297Z,17.7
2019-02-14T03:53:09.615Z,17.7
2019-02-14T03:54:10.389Z,17.7
2019-02-14T03:55:09.100Z,17.7
2019-02-14T03:56:10.533Z,17.68
2019-02-14T03:57:08.871Z,17.67
2019-02-14T03:58:08.743Z,17.68
2019-02-14T03:59:08.915Z,17.68
2019-02-14T04:00:08.923Z,17.67
2019-02-14T04:01:09.626Z,17.68
2019-02-14T04:02:09.015Z,17.68
2019-02-14T04:03:09.250Z,17.68
2019-02-14T04:04:09.221Z,17.67
2019-02-14T04:05:08.958Z,17.66
2019-02-14T04:06:09.903Z,17.68
2019-02-14T04:07:09.606Z,17.67
2019-02-14T04:08:08.737Z,17.67
2019-02-14T04:09:09.392Z,17.64
2019-02-14T04:10:08.689Z,17.66
2019-02-14T04:11:08.888Z,17.64
2019-02-14T04:12:09.097Z,17.64
2019-02-14T04:13:09.250Z,17.64
2019-02-14T04:14:09.893Z,17.64
2019-02-14T04:15:09.530Z,17.63
2019-02-14T04:16:09.619Z,17.63
2019-02-14T04:17:08.730Z,17.64
2019-02-14T04:18:09.050Z,17.66
2019-02-14T04:19:09.139Z,17.63
2019-02-14T04:20:09.365Z,17.61
2019-02-14T04:21:08.995Z,17.61
2019-02-14T04:22:08.876Z,17.6
2019-02-14T04:23:09.103Z,17.63
2019-02-14T04:24:09.502Z,17.61
2019-02-14T04:25:08.534Z,17.59
2019-02-14T04:26:08.905Z,17.6
2019-02-14T04:27:10.683Z,17.61
2019-02-14T04:28:09.261Z,17.59
2019-02-14T04:29:08.888Z,17.63
2019-02-14T04:30:09.273Z,17.59
2019-02-14T04:31:08.860Z,17.57
2019-02-14T04:32:09.128Z,17.57
2019-02-14T04:33:09.137Z,17.57
2019-02-14T04:34:09.060Z,17.59
2019-02-14T04:35:09.173Z,17.59
2019-02-14T04:36:08.982Z,17.59
2019-02-14T04:37:09.406Z,17.57
2019-02-14T04:38:09.376Z,17.57
2019-02-14T04:39:09.144Z,17.57
2019-02-14T04:40:09.010Z,17.59
2019-02-14T04:41:08.773Z,17.57
2019-02-14T04:42:09.297Z,17.57
2019-02-14T04:43:08.740Z,17.59
2019-02-14T04:44:08.651Z,17.59
2019-02-14T04:45:08.474Z,17.59
2019-02-14T04:46:09.139Z,17.57
2019-02-14T04:47:09.717Z,17.59
2019-02-14T04:48:09.054Z,17.59
2019-02-14T04:49:09.165Z,17.57
2019-02-14T04:50:09.102Z,17.59
2019-02-14T04:51:09.233Z,17.6
2019-02-14T04:52:10.640Z,17.61
2019-02-14T04:53:09.156Z,17.64
2019-02-14T04:54:09.028Z,17.64
2019-02-14T04:55:08.933Z,17.66
2019-02-14T04:56:08.782Z,17.68
2019-02-14T04:57:08.808Z,17.67
2019-02-14T04:58:09.539Z,17.67
2019-02-14T04:59:10.679Z,17.7
2019-02-14T05:00:08.923Z,17.71
2019-02-14T05:01:09.343Z,17.71
2019-02-14T05:02:08.990Z,17.71
2019-02-14T05:03:08.866Z,17.73
2019-02-14T05:04:10.695Z,17.77
2019-02-14T05:05:09.406Z,17.74
2019-02-14T05:06:09.074Z,17.78
2019-02-14T05:07:09.378Z,17.78
2019-02-14T05:08:08.803Z,17.82
2019-02-14T05:09:09.097Z,17.85
2019-02-14T05:10:09.280Z,17.87
2019-02-14T05:11:09.018Z,17.87
2019-02-14T05:12:08.706Z,17.87
2019-02-14T05:13:09.150Z,17.89
2019-02-14T05:14:08.557Z,17.89
2019-02-14T05:15:09.979Z,17.93
2019-02-14T05:16:08.731Z,17.97
2019-02-14T05:17:08.984Z,17.97
2019-02-14T05:18:09.173Z,18
2019-02-14T05:19:10.755Z,18
2019-02-14T05:20:10.235Z,18.01
2019-02-14T05:21:09.508Z,18.02
2019-02-14T05:22:09.750Z,18.04
2019-02-14T05:23:08.734Z,18.08
2019-02-14T05:24:09.263Z,18.09
2019-02-14T05:25:08.959Z,18.11
2019-02-14T05:26:09.030Z,18.13
2019-02-14T05:27:08.624Z,18.16
2019-02-14T05:28:09.033Z,18.16
2019-02-14T05:29:09.034Z,18.16
2019-02-14T05:30:08.759Z,18.19
2019-02-14T05:31:08.939Z,18.22
2019-02-14T05:32:08.860Z,18.21
2019-02-14T05:33:08.732Z,18.23
2019-02-14T05:34:08.969Z,18.23
2019-02-14T05:35:08.960Z,18.28
2019-02-14T05:36:09.108Z,18.28
2019-02-14T05:37:08.979Z,18.32
2019-02-14T05:38:09.208Z,18.3
2019-02-14T05:39:09.275Z,18.28
2019-02-14T05:40:09.169Z,18.32
2019-02-14T05:41:09.188Z,18.35
2019-02-14T05:42:09.682Z,18.33
2019-02-14T05:43:09.967Z,18.37
2019-02-14T05:44:08.800Z,18.4
2019-02-14T05:45:08.799Z,18.39
2019-02-14T05:46:09.127Z,18.4
2019-02-14T05:47:09.108Z,18.41
2019-02-14T05:48:08.793Z,18.4
2019-02-14T05:49:08.872Z,18.44
2019-02-14T05:50:08.829Z,18.44
2019-02-14T05:51:09.309Z,18.44
2019-02-14T05:52:09.510Z,18.49
2019-02-14T05:53:08.859Z,18.47
2019-02-14T05:54:09.278Z,18.47
2019-02-14T05:55:08.732Z,18.5
2019-02-14T05:56:09.110Z,18.5
2019-02-14T05:57:09.056Z,18.49
2019-02-14T05:58:08.934Z,18.53
2019-02-14T05:59:09.161Z,18.54
2019-02-14T06:00:09.206Z,18.53
2019-02-14T06:01:08.707Z,18.54
2019-02-14T06:02:08.937Z,18.57
2019-02-14T06:03:09.065Z,18.58
2019-02-14T06:04:09.518Z,18.57
2019-02-14T06:05:09.615Z,18.6
2019-02-14T06:06:09.000Z,18.58
2019-02-14T06:07:10.505Z,18.58
2019-02-14T06:08:10.124Z,18.6
2019-02-14T06:09:08.941Z,18.6
2019-02-14T06:10:09.044Z,18.62
2019-02-14T06:11:09.065Z,18.66
2019-02-14T06:12:08.984Z,18.63
2019-02-14T06:13:09.354Z,18.63
2019-02-14T06:14:10.120Z,18.64
2019-02-14T06:15:08.587Z,18.64
2019-02-14T06:16:08.980Z,18.63
2019-02-14T06:17:09.082Z,18.64
2019-02-14T06:18:08.968Z,18.66
2019-02-14T06:19:08.898Z,18.66
2019-02-14T06:20:09.237Z,18.66
2019-02-14T06:21:09.041Z,18.68
2019-02-14T06:22:08.744Z,18.68
2019-02-14T06:23:08.749Z,18.67
2019-02-14T06:24:09.104Z,18.68
2019-02-14T06:25:09.271Z,18.67
2019-02-14T06:26:09.793Z,18.7
2019-02-14T06:27:09.464Z,18.68
2019-02-14T06:28:08.991Z,18.68
2019-02-14T06:29:08.848Z,18.7
2019-02-14T06:30:08.775Z,18.68
2019-02-14T06:31:09.014Z,18.71
2019-02-14T06:32:09.682Z,18.71
2019-02-14T06:33:08.996Z,18.7
2019-02-14T06:34:08.896Z,18.7
2019-02-14T06:35:09.008Z,18.71
2019-02-14T06:36:09.820Z,18.73
2019-02-14T06:37:10.404Z,18.73
2019-02-14T06:38:08.743Z,18.73
2019-02-14T06:39:09.437Z,18.71
2019-02-14T06:40:08.701Z,18.71
2019-02-14T06:41:09.131Z,18.71
2019-02-14T06:42:08.531Z,18.7
2019-02-14T06:43:08.962Z,18.73
2019-02-14T06:44:08.914Z,18.73
2019-02-14T06:45:08.582Z,18.73
2019-02-14T06:46:09.522Z,18.74
2019-02-14T06:47:09.020Z,18.73
2019-02-14T06:48:08.690Z,18.73
2019-02-14T06:49:10.493Z,18.73
2019-02-14T06:50:09.482Z,18.74
2019-02-14T06:51:08.660Z,18.74
2019-02-14T06:52:09.818Z,18.73
2019-02-14T06:53:08.739Z,18.73
2019-02-14T06:54:08.497Z,18.74
2019-02-14T06:55:08.681Z,18.74
2019-02-14T06:56:08.938Z,18.73
2019-02-14T06:57:08.772Z,18.74
2019-02-14T06:58:09.039Z,18.74
2019-02-14T06:59:08.771Z,18.71
2019-02-14T07:00:08.783Z,18.73
2019-02-14T07:01:08.906Z,18.73
2019-02-14T07:02:08.768Z,18.73
2019-02-14T07:03:08.553Z,18.73
2019-02-14T07:04:09.269Z,18.74
2019-02-14T07:05:10.655Z,18.71
2019-02-14T07:06:08.842Z,18.71
2019-02-14T07:07:08.926Z,18.73
2019-02-14T07:08:09.861Z,18.71
2019-02-14T07:09:08.733Z,18.7
2019-02-14T07:10:09.443Z,18.71
2019-02-14T07:11:09.818Z,18.74
2019-02-14T07:12:09.113Z,18.71
2019-02-14T07:13:09.596Z,18.7
2019-02-14T07:14:08.895Z,18.71
2019-02-14T07:15:09.134Z,18.7
2019-02-14T07:16:10.628Z,18.7
2019-02-14T07:17:08.911Z,18.68
2019-02-14T07:18:10.601Z,18.68
2019-02-14T07:19:08.702Z,18.7
2019-02-14T07:20:09.452Z,18.7
2019-02-14T07:21:08.973Z,18.7
2019-02-14T07:22:08.872Z,18.68
2019-02-14T07:23:08.856Z,18.68
2019-02-14T07:24:09.437Z,18.68
2019-02-14T07:25:08.679Z,18.67
2019-02-14T07:26:08.762Z,18.67
2019-02-14T07:27:09.293Z,18.7
2019-02-14T07:28:08.771Z,18.68
2019-02-14T07:29:08.836Z,18.68
2019-02-14T07:30:09.235Z,18.68
2019-02-14T07:31:09.055Z,18.67
2019-02-14T07:32:10.748Z,18.66
2019-02-14T07:33:09.767Z,18.67
2019-02-14T07:34:09.602Z,18.66
2019-02-14T07:35:10.552Z,18.68
2019-02-14T07:36:10.695Z,18.67
2019-02-14T07:37:09.393Z,18.67
2019-02-14T07:38:10.606Z,18.68
2019-02-14T07:39:10.986Z,18.68
2019-02-14T07:40:09.612Z,18.66
2019-02-14T07:41:08.640Z,18.7
2019-02-14T07:42:08.790Z,18.68
2019-02-14T07:43:08.714Z,18.67
2019-02-14T07:44:08.798Z,18.68
2019-02-14T07:45:09.467Z,18.67
2019-02-14T07:46:09.477Z,18.68
2019-02-14T07:47:09.297Z,18.66
2019-02-14T07:48:08.769Z,18.67
2019-02-14T07:49:08.852Z,18.68
2019-02-14T07:50:08.868Z,18.68
2019-02-14T07:51:08.716Z,18.68
2019-02-14T07:52:08.939Z,18.68
2019-02-14T07:53:10.475Z,18.7
2019-02-14T07:54:08.957Z,18.68
2019-02-14T07:55:11.613Z,18.68
2019-02-14T07:56:09.667Z,18.7
2019-02-14T07:57:08.830Z,18.67
2019-02-14T07:58:08.874Z,18.68
2019-02-14T07:59:08.642Z,18.68
2019-02-14T08:00:08.986Z,18.66
2019-02-14T08:01:09.050Z,18.7
2019-02-14T08:02:09.229Z,18.7
2019-02-14T08:03:09.065Z,18.7
2019-02-14T08:04:08.995Z,18.71
2019-02-14T08:05:10.123Z,18.71
2019-02-14T08:06:08.772Z,18.71
2019-02-14T08:07:09.130Z,18.71
2019-02-14T08:08:08.709Z,18.68
2019-02-14T08:09:08.870Z,18.73
2019-02-14T08:10:09.084Z,18.71
2019-02-14T08:11:09.301Z,18.67
2019-02-14T08:12:08.941Z,18.71
2019-02-14T08:13:08.517Z,18.71
2019-02-14T08:14:08.835Z,18.71
2019-02-14T08:15:08.760Z,18.71
2019-02-14T08:16:10.244Z,18.74
2019-02-14T08:17:08.707Z,18.71
2019-02-14T08:18:09.225Z,18.74
2019-02-14T08:19:09.190Z,18.74
2019-02-14T08:20:08.718Z,18.73
2019-02-14T08:21:08.936Z,18.73
2019-02-14T08:22:10.495Z,18.74
2019-02-14T08:23:08.698Z,18.74
2019-02-14T08:24:08.855Z,18.74
2019-02-14T08:25:08.687Z,18.74
2019-02-14T08:26:11.543Z,18.74
2019-02-14T08:27:08.815Z,18.74
2019-02-14T08:28:09.619Z,18.74
2019-02-14T08:29:09.711Z,18.71
2019-02-14T08:30:08.815Z,18.7
2019-02-14T08:31:08.929Z,18.68
2019-02-14T08:32:08.952Z,18.64
2019-02-14T08:33:08.756Z,18.6
2019-02-14T08:34:08.909Z,18.6
2019-02-14T08:35:08.850Z,18.63
2019-02-14T08:36:08.897Z,18.62
2019-02-14T08:37:09.070Z,18.63
2019-02-14T08:38:08.733Z,18.64
2019-02-14T08:39:09.371Z,18.62
2019-02-14T08:40:08.940Z,18.63
2019-02-14T08:41:08.677Z,18.63
2019-02-14T08:42:09.719Z,18.63
2019-02-14T08:43:09.173Z,18.64
2019-02-14T08:44:08.860Z,18.66
2019-02-14T08:45:08.628Z,18.66
2019-02-14T08:46:09.135Z,18.66
2019-02-14T08:47:10.435Z,18.67
2019-02-14T08:48:09.365Z,18.67
2019-02-14T08:49:08.859Z,18.67
2019-02-14T08:50:08.808Z,18.67
2019-02-14T08:51:09.051Z,18.68
2019-02-14T08:52:08.907Z,18.7
2019-02-14T08:53:09.233Z,18.71
2019-02-14T08:54:08.801Z,18.7
2019-02-14T08:55:10.514Z,18.71
2019-02-14T08:56:08.990Z,18.71
2019-02-14T08:57:08.776Z,18.68
2019-02-14T08:58:08.864Z,18.7
2019-02-14T08:59:08.966Z,18.71
2019-02-14T09:00:10.623Z,18.71
2019-02-14T09:01:08.845Z,18.74
2019-02-14T09:02:09.325Z,18.74
2019-02-14T09:03:08.786Z,18.74
2019-02-14T09:04:09.184Z,18.73
2019-02-14T09:05:08.580Z,18.74
2019-02-14T09:06:08.591Z,18.74
2019-02-14T09:07:08.498Z,18.74
2019-02-14T09:08:08.589Z,18.71
2019-02-14T09:09:08.467Z,18.74
2019-02-14T09:10:08.738Z,18.75
2019-02-14T09:11:09.003Z,18.73
2019-02-14T09:12:08.810Z,18.74
2019-02-14T09:13:17.751Z,18.74
2019-02-14T09:14:09.268Z,18.74
2019-02-14T09:15:08.941Z,18.73
2019-02-14T09:16:08.782Z,18.71
2019-02-14T09:17:08.806Z,18.71
2019-02-14T09:18:09.288Z,18.71
2019-02-14T09:19:08.752Z,18.73
2019-02-14T09:20:09.187Z,18.74
2019-02-14T09:21:09.472Z,18.75
2019-02-14T09:22:10.068Z,18.78
2019-02-14T09:23:08.920Z,18.78
2019-02-14T09:24:08.478Z,18.81
2019-02-14T09:25:08.819Z,18.81
2019-02-14T09:26:09.306Z,18.81
2019-02-14T09:27:08.668Z,18.84
2019-02-14T09:28:08.710Z,18.87
2019-02-14T09:29:08.809Z,18.87
2019-02-14T09:30:08.998Z,18.87
2019-02-14T09:31:09.019Z,18.9
2019-02-14T09:32:08.832Z,18.91
2019-02-14T09:33:10.360Z,18.92
2019-02-14T09:34:10.479Z,18.94
2019-02-14T09:35:08.722Z,18.92
2019-02-14T09:36:09.117Z,18.94
2019-02-14T09:37:08.673Z,18.97
2019-02-14T09:38:08.920Z,18.98
2019-02-14T09:39:08.797Z,19.01
2019-02-14T09:40:09.171Z,19.01
2019-02-14T09:41:08.787Z,19.02
2019-02-14T09:42:08.604Z,19.05
2019-02-14T09:43:09.722Z,19.05
2019-02-14T09:44:09.616Z,19.06
2019-02-14T09:45:08.891Z,19.08
2019-02-14T09:46:09.488Z,19.11
2019-02-14T09:47:09.047Z,19.08
2019-02-14T09:48:08.995Z,19.11
2019-02-14T09:49:08.795Z,19.12
2019-02-14T09:50:08.720Z,19.12
2019-02-14T09:51:08.786Z,19.12
2019-02-14T09:52:08.560Z,19.13
2019-02-14T09:53:08.906Z,19.13
2019-02-14T09:54:10.502Z,19.15
2019-02-14T09:55:08.767Z,19.16
2019-02-14T09:56:09.255Z,19.16
2019-02-14T09:57:09.588Z,19.16
2019-02-14T09:58:09.951Z,19.16
2019-02-14T09:59:09.346Z,19.16
2019-02-14T10:00:08.827Z,19.19
2019-02-14T10:01:09.050Z,19.18
2019-02-14T10:02:10.039Z,19.18
2019-02-14T10:03:08.785Z,19.16
2019-02-14T10:04:08.768Z,19.18
2019-02-14T10:05:09.189Z,19.2
2019-02-14T10:06:09.862Z,19.19
2019-02-14T10:07:08.775Z,19.19
2019-02-14T10:08:13.606Z,19.2
2019-02-14T10:09:09.447Z,19.19
2019-02-14T10:10:09.302Z,19.22
2019-02-14T10:11:10.631Z,19.18
2019-02-14T10:12:09.008Z,19.22
2019-02-14T10:13:09.770Z,19.16
2019-02-14T10:14:08.959Z,19.16
2019-02-14T10:15:08.814Z,19.18
2019-02-14T10:16:08.889Z,19.18
2019-02-14T10:17:08.873Z,19.18
2019-02-14T10:18:10.472Z,19.13
2019-02-14T10:19:08.868Z,19.16
2019-02-14T10:20:08.742Z,19.13
2019-02-14T10:21:08.816Z,19.15
2019-02-14T10:22:08.874Z,19.15
2019-02-14T10:23:08.912Z,19.13
2019-02-14T10:24:08.536Z,19.13
2019-02-14T10:25:08.657Z,19.13
2019-02-14T10:26:08.421Z,19.13
2019-02-14T10:27:09.777Z,19.11
2019-02-14T10:28:08.876Z,19.12
2019-02-14T10:29:08.753Z,19.11
2019-02-14T10:30:08.882Z,19.11
2019-02-14T10:31:08.758Z,19.13
2019-02-14T10:32:08.851Z,19.13
2019-02-14T10:33:09.067Z,19.13
2019-02-14T10:34:10.152Z,19.12
2019-02-14T10:35:08.940Z,19.12
2019-02-14T10:36:09.051Z,19.13
2019-02-14T10:37:08.406Z,19.12
2019-02-14T10:38:08.810Z,19.13
2019-02-14T10:39:08.913Z,19.13
2019-02-14T10:40:08.465Z,19.12
2019-02-14T10:41:08.767Z,19.13
2019-02-14T10:42:09.895Z,19.13
2019-02-14T10:43:08.816Z,19.13
2019-02-14T10:44:08.762Z,19.16
2019-02-14T10:45:09.405Z,19.18
2019-02-14T10:46:08.756Z,19.16
2019-02-14T10:47:08.833Z,19.13
2019-02-14T10:48:10.752Z,19.16
2019-02-14T10:49:08.345Z,19.18
2019-02-14T10:50:08.698Z,19.18
2019-02-14T10:51:08.783Z,19.19
2019-02-14T10:52:09.129Z,19.18
2019-02-14T10:53:09.034Z,19.19
2019-02-14T10:54:08.690Z,19.19
2019-02-14T10:55:09.022Z,19.19
2019-02-14T10:56:08.681Z,19.19
2019-02-14T10:57:08.669Z,19.2
2019-02-14T10:58:08.804Z,19.18
2019-02-14T10:59:08.864Z,19.19
2019-02-14T11:00:08.690Z,19.22
2019-02-14T11:01:08.766Z,19.23
2019-02-14T11:02:10.608Z,19.25
2019-02-14T11:03:08.914Z,19.26
2019-02-14T11:04:08.785Z,19.29
2019-02-14T11:05:08.983Z,19.29
2019-02-14T11:06:08.987Z,19.3
2019-02-14T11:07:08.715Z,19.29
2019-02-14T11:08:08.968Z,19.3
2019-02-14T11:09:08.743Z,19.32
2019-02-14T11:10:09.388Z,19.33
2019-02-14T11:11:09.360Z,19.33
2019-02-14T11:12:09.033Z,19.32
2019-02-14T11:13:08.751Z,19.37
2019-02-14T11:14:09.479Z,19.36
2019-02-14T11:15:09.560Z,19.37
2019-02-14T11:16:10.157Z,19.37
2019-02-14T11:17:08.950Z,19.37
2019-02-14T11:18:08.980Z,19.39
2019-02-14T11:19:08.751Z,19.36
2019-02-14T11:20:09.393Z,19.36
2019-02-14T11:21:09.776Z,19.35
2019-02-14T11:22:08.477Z,19.35
2019-02-14T11:23:09.375Z,19.33
2019-02-14T11:24:09.115Z,19.33
2019-02-14T11:25:08.907Z,19.32
2019-02-14T11:26:09.092Z,19.33
2019-02-14T11:27:08.769Z,19.33
2019-02-14T11:28:10.648Z,19.35
2019-02-14T11:29:09.198Z,19.35
2019-02-14T11:30:08.643Z,19.35
2019-02-14T11:31:09.648Z,19.36
2019-02-14T11:32:09.686Z,19.36
2019-02-14T11:33:09.150Z,19.39
2019-02-14T11:34:09.261Z,19.39
2019-02-14T11:35:09.012Z,19.39
2019-02-14T11:36:08.714Z,19.4
2019-02-14T11:37:09.140Z,19.39
2019-02-14T11:38:08.831Z,19.39
2019-02-14T11:39:08.805Z,19.36
2019-02-14T11:40:08.980Z,19.37
2019-02-14T11:41:10.361Z,19.37
2019-02-14T11:42:09.044Z,19.36
2019-02-14T11:43:09.251Z,19.36
2019-02-14T11:44:08.948Z,19.36
2019-02-14T11:45:08.784Z,19.33
2019-02-14T11:46:09.182Z,19.32
2019-02-14T11:47:09.021Z,19.35
2019-02-14T11:48:08.684Z,19.35
2019-02-14T11:49:09.709Z,19.35
2019-02-14T11:50:10.390Z,19.35
2019-02-14T11:51:08.788Z,19.33
2019-02-14T11:52:09.132Z,19.33
2019-02-14T11:54:08.442Z,19.35
2019-02-14T11:55:09.138Z,19.33
2019-02-14T11:55:13.727Z,19.33
2019-02-14T11:56:10.354Z,19.35
2019-02-14T11:57:08.773Z,19.36
2019-02-14T11:58:09.036Z,19.36
2019-02-14T11:59:09.354Z,19.36
2019-02-14T12:00:08.504Z,19.36
2019-02-14T12:01:09.815Z,19.35
2019-02-14T12:02:08.681Z,19.37
2019-02-14T12:03:09.257Z,19.35
2019-02-14T12:04:08.874Z,19.37
2019-02-14T12:05:08.932Z,19.37
2019-02-14T12:06:08.770Z,19.36
2019-02-14T12:07:08.720Z,19.39
2019-02-14T12:08:09.933Z,19.4
2019-02-14T12:09:08.672Z,19.4
2019-02-14T12:10:14.215Z,19.42
2019-02-14T12:11:09.278Z,19.42
2019-02-14T12:12:08.782Z,19.45
2019-02-14T12:13:09.189Z,19.46
2019-02-14T12:14:09.101Z,19.45
2019-02-14T12:15:08.433Z,19.46
2019-02-14T12:16:10.036Z,19.5
2019-02-14T12:17:09.959Z,19.5
2019-02-14T12:18:08.737Z,19.52
2019-02-14T12:19:08.803Z,19.54
2019-02-14T12:20:13.030Z,19.52
2019-02-14T12:21:08.698Z,19.53
2019-02-14T12:22:08.726Z,19.56
2019-02-14T12:23:09.723Z,19.56
2019-02-14T12:24:08.445Z,19.57
2019-02-14T12:25:08.795Z,19.58
2019-02-14T12:26:09.071Z,19.6
2019-02-14T12:27:09.061Z,19.61
2019-02-14T12:28:08.517Z,19.61
2019-02-14T12:29:09.742Z,19.64
2019-02-14T12:30:08.892Z,19.61
2019-02-14T12:31:08.765Z,19.61
2019-02-14T12:32:09.755Z,19.63
2019-02-14T12:33:09.008Z,19.61
2019-02-14T12:34:10.374Z,19.64
2019-02-14T12:35:09.000Z,19.64
2019-02-14T12:36:08.886Z,19.64
2019-02-14T12:37:09.713Z,19.68
2019-02-14T12:38:08.667Z,19.67
2019-02-14T12:39:12.071Z,19.68
2019-02-14T12:40:10.345Z,19.7
2019-02-14T12:41:10.590Z,19.7
2019-02-14T12:42:08.690Z,19.71
2019-02-14T12:43:08.822Z,19.71
2019-02-14T12:44:09.084Z,19.73
2019-02-14T12:45:09.450Z,19.73
2019-02-14T12:46:08.943Z,19.74
2019-02-14T12:47:08.927Z,19.73
2019-02-14T12:48:08.692Z,19.7
2019-02-14T12:49:08.836Z,19.67
2019-02-14T12:50:10.468Z,19.64
2019-02-14T12:51:08.722Z,19.63
2019-02-14T12:52:09.060Z,19.64
2019-02-14T12:53:09.097Z,19.64
2019-02-14T12:54:08.456Z,19.63
2019-02-14T12:55:09.003Z,19.63